createdAt,value
2022-11-26T00:00:06.225Z,100.00
2022-11-26T00:02:55.061Z,100.00
2022-11-26T00:11:37.778Z,100.00
2022-11-26T00:17:17.091Z,100.00
2022-11-26T00:20:07.111Z,100.00
2022-11-26T00:22:58.545Z,100.00
2022-11-26T00:28:39.817Z,100.00
2022-11-26T00:34:15.219Z,100.00
2022-11-26T00:39:47.050Z,100.00
2022-11-26T00:45:20.388Z,100.00
2022-11-26T00:48:08.794Z,100.00
2022-11-26T00:53:39.453Z,100.00
2022-11-26T00:59:17.512Z,100.00
2022-11-26T01:02:05.647Z,100.00
2022-11-26T01:04:53.849Z,100.00
2022-11-26T01:07:43.488Z,100.00
2022-11-26T01:13:17.180Z,100.00
2022-11-26T01:19:36.687Z,100.00
2022-11-26T01:22:25.527Z,100.00
2022-11-26T01:25:13.654Z,100.00
2022-11-26T01:28:02.258Z,100.00
2022-11-26T01:30:54.008Z,100.00
2022-11-26T01:39:16.121Z,100.00
2022-11-26T01:44:50.416Z,100.00
2022-11-26T01:47:38.895Z,100.00
2022-11-26T01:53:49.100Z,100.00
2022-11-26T01:56:40.538Z,100.00
2022-11-26T02:02:18.695Z,100.00
2022-11-26T02:05:10.669Z,100.00
2022-11-26T02:10:46.299Z,100.00
2022-11-26T02:16:59.136Z,100.00
2022-11-26T02:20:32.742Z,100.00
2022-11-26T02:23:51.137Z,100.00
2022-11-26T02:30:07.111Z,100.00
2022-11-26T02:38:36.978Z,100.00
2022-11-26T02:44:12.737Z,100.00
2022-11-26T02:49:45.228Z,100.00
2022-11-26T02:55:27.877Z,100.00
2022-11-26T02:58:16.382Z,100.00
2022-11-26T03:03:54.051Z,100.00
2022-11-26T03:06:42.781Z,100.00
2022-11-26T03:12:25.398Z,100.00
2022-11-26T03:18:01.490Z,100.00
2022-11-26T03:23:36.965Z,100.00
2022-11-26T03:29:06.823Z,100.00
2022-11-26T03:31:54.753Z,100.00
2022-11-26T03:34:43.956Z,100.00
2022-11-26T03:37:32.095Z,100.00
2022-11-26T03:40:20.799Z,100.00
2022-11-26T03:43:10.024Z,100.00
2022-11-26T03:49:00.511Z,100.00
2022-11-26T03:54:29.991Z,100.00
2022-11-26T04:00:09.210Z,100.00
2022-11-26T04:05:45.261Z,100.00
2022-11-26T04:11:19.659Z,100.00
2022-11-26T04:14:07.968Z,100.00
2022-11-26T04:16:57.403Z,100.00
2022-11-26T04:22:33.352Z,100.00
2022-11-26T04:25:23.185Z,100.00
2022-11-26T04:30:56.971Z,100.00
2022-11-26T04:33:45.935Z,100.00
2022-11-26T04:36:34.497Z,100.00
2022-11-26T04:42:11.949Z,100.00
2022-11-26T04:48:04.944Z,100.00
2022-11-26T04:53:46.510Z,100.00
2022-11-26T04:59:18.317Z,100.00
2022-11-26T05:02:06.447Z,100.00
2022-11-26T05:07:42.440Z,100.00
2022-11-26T05:13:13.628Z,100.00
2022-11-26T05:16:02.819Z,100.00
2022-11-26T05:18:51.588Z,100.00
2022-11-26T05:21:41.128Z,100.00
2022-11-26T05:27:20.013Z,100.00
2022-11-26T05:32:59.514Z,100.00
2022-11-26T05:35:48.611Z,100.00
2022-11-26T05:38:36.835Z,100.00
2022-11-26T05:46:44.426Z,100.00
2022-11-26T05:52:15.038Z,100.00
2022-11-26T05:57:53.662Z,100.00
2022-11-26T06:03:29.262Z,100.00
2022-11-26T06:06:20.151Z,100.00
2022-11-26T06:09:08.853Z,100.00
2022-11-26T06:14:47.028Z,100.00
2022-11-26T06:20:21.243Z,100.00
2022-11-26T06:25:56.373Z,100.00
2022-11-26T06:31:34.906Z,100.00
2022-11-26T06:34:24.959Z,100.00
2022-11-26T06:37:13.424Z,100.00
2022-11-26T06:42:44.979Z,100.00
2022-11-26T06:45:33.114Z,100.00
2022-11-26T06:48:25.222Z,100.00
2022-11-26T06:53:58.129Z,100.00
2022-11-26T06:59:32.204Z,100.00
2022-11-26T07:05:00.573Z,100.00
2022-11-26T07:07:48.989Z,100.00
2022-11-26T07:10:38.135Z,100.00
2022-11-26T07:16:08.557Z,100.00
2022-11-26T07:19:02.739Z,100.00
2022-11-26T07:21:48.110Z,100.00
2022-11-26T07:24:36.784Z,100.00
2022-11-26T07:30:13.375Z,100.00
2022-11-26T07:33:01.420Z,100.00
2022-11-26T07:35:49.660Z,100.00
2022-11-26T07:38:37.801Z,100.00
2022-11-26T07:41:26.552Z,100.00
2022-11-26T07:47:05.884Z,100.00
2022-11-26T07:49:54.180Z,100.00
2022-11-26T07:55:28.966Z,100.00
2022-11-26T07:58:18.678Z,100.00
2022-11-26T08:01:13.299Z,100.00
2022-11-26T08:06:46.179Z,100.00
2022-11-26T08:12:14.469Z,100.00
2022-11-26T08:15:02.945Z,100.00
2022-11-26T08:20:39.435Z,100.00
2022-11-26T08:29:00.147Z,100.00
2022-11-26T08:34:38.446Z,100.00
2022-11-26T08:40:19.426Z,100.00
2022-11-26T08:46:13.066Z,100.00
2022-11-26T08:49:07.722Z,100.00
2022-11-26T08:54:45.125Z,99.57
2022-11-26T09:00:23.032Z,97.85
2022-11-26T09:03:12.009Z,95.22
2022-11-26T09:09:07.122Z,91.57
2022-11-26T09:11:58.334Z,90.67
2022-11-26T09:17:47.219Z,88.55
2022-11-26T09:20:35.381Z,89.51
2022-11-26T09:23:24.496Z,88.62
2022-11-26T09:29:00.985Z,90.54
2022-11-26T09:34:39.328Z,84.78
2022-11-26T09:40:19.504Z,83.45
2022-11-26T09:43:10.888Z,82.00
2022-11-26T09:46:01.975Z,80.33
2022-11-26T09:51:37.167Z,80.37
2022-11-26T09:57:20.836Z,83.41
2022-11-26T10:02:54.451Z,79.82
2022-11-26T10:08:57.712Z,79.97
2022-11-26T10:14:40.777Z,82.89
2022-11-26T10:23:57.740Z,85.57
2022-11-26T10:29:30.144Z,86.27
2022-11-26T10:35:04.445Z,87.70
2022-11-26T10:40:39.830Z,88.55
2022-11-26T10:46:09.875Z,87.19
2022-11-26T10:52:07.947Z,85.82
2022-11-26T10:58:06.811Z,82.44
2022-11-26T11:01:00.153Z,80.98
2022-11-26T11:06:41.655Z,80.08
2022-11-26T11:09:34.038Z,80.40
2022-11-26T11:15:25.820Z,80.24
2022-11-26T11:21:09.926Z,82.29
2022-11-26T11:24:10.762Z,83.28
2022-11-26T11:27:01.002Z,84.67
2022-11-26T11:35:31.156Z,86.96
2022-11-26T11:41:14.506Z,86.59
2022-11-26T11:47:09.850Z,86.48
2022-11-26T11:53:09.087Z,87.31
2022-11-26T12:02:05.491Z,84.00
2022-11-26T12:07:53.481Z,80.81
2022-11-26T12:13:25.755Z,80.07
2022-11-26T12:16:18.676Z,79.35
2022-11-26T12:22:15.729Z,77.44
2022-11-26T12:27:53.694Z,75.60
2022-11-26T12:33:28.452Z,76.23
2022-11-26T12:39:29.301Z,73.70
2022-11-26T12:45:17.426Z,72.52
2022-11-26T12:50:55.898Z,69.96
2022-11-26T12:53:47.871Z,71.02
2022-11-26T12:56:40.259Z,72.53
2022-11-26T13:02:16.938Z,74.17
2022-11-26T13:08:23.597Z,74.02
2022-11-26T13:14:15.432Z,74.81
2022-11-26T13:20:10.916Z,72.97
2022-11-26T13:26:05.021Z,72.26
2022-11-26T13:29:04.012Z,72.13
2022-11-26T13:32:12.922Z,71.75
2022-11-26T13:38:05.998Z,70.57
2022-11-26T13:43:53.192Z,71.43
2022-11-26T13:46:42.994Z,71.75
2022-11-26T13:52:16.324Z,72.18
2022-11-26T13:57:57.212Z,73.82
2022-11-26T14:00:45.562Z,74.49
2022-11-26T14:03:49.174Z,75.64
2022-11-26T14:09:49.847Z,77.29
2022-11-26T14:16:00.334Z,77.24
2022-11-26T14:19:03.082Z,77.29
2022-11-26T14:22:03.277Z,78.04
2022-11-26T14:30:51.746Z,80.01
2022-11-26T14:33:43.868Z,80.08
2022-11-26T14:39:15.206Z,81.15
2022-11-26T14:44:51.716Z,82.02
2022-11-26T14:50:27.825Z,81.79
2022-11-26T14:56:05.540Z,82.00
2022-11-26T15:01:37.564Z,83.00
2022-11-26T15:04:27.402Z,83.11
2022-11-26T15:07:25.839Z,84.20
2022-11-26T15:13:11.479Z,85.11
2022-11-26T15:16:01.573Z,84.75
2022-11-26T15:21:36.819Z,85.77
2022-11-26T15:24:24.610Z,87.04
2022-11-26T15:27:30.348Z,86.25
2022-11-26T15:30:23.410Z,86.68
2022-11-26T15:36:00.790Z,86.23
2022-11-26T15:41:51.002Z,86.58
2022-11-26T15:44:42.904Z,87.48
2022-11-26T15:50:21.384Z,87.89
2022-11-26T15:55:55.445Z,89.25
2022-11-26T16:01:25.875Z,90.79
2022-11-26T16:07:30.153Z,92.91
2022-11-26T16:13:21.438Z,93.23
2022-11-26T16:18:58.720Z,94.46
2022-11-26T16:21:57.928Z,94.86
2022-11-26T16:27:35.076Z,95.19
2022-11-26T16:33:13.954Z,95.57
2022-11-26T16:38:45.291Z,95.06
2022-11-26T16:44:21.243Z,93.88
2022-11-26T16:47:15.077Z,93.85
2022-11-26T16:50:03.807Z,92.91
2022-11-26T16:55:36.186Z,92.11
2022-11-26T17:04:03.292Z,90.98
2022-11-26T17:06:52.605Z,90.16
2022-11-26T17:12:29.053Z,90.30
2022-11-26T17:18:08.498Z,91.03
2022-11-26T17:20:56.942Z,92.15
2022-11-26T17:23:46.328Z,92.37
2022-11-26T17:29:22.459Z,92.84
2022-11-26T17:32:13.719Z,93.67
2022-11-26T17:37:40.524Z,93.95
2022-11-26T17:43:16.876Z,93.88
2022-11-26T17:48:59.589Z,94.76
2022-11-26T17:51:44.900Z,94.34
2022-11-26T17:54:33.785Z,94.18
2022-11-26T18:00:13.667Z,94.13
2022-11-26T18:06:00.489Z,94.21
2022-11-26T18:11:49.965Z,94.05
2022-11-26T18:14:43.577Z,93.29
2022-11-26T18:20:19.884Z,93.41
2022-11-26T18:28:34.744Z,93.74
2022-11-26T18:34:04.575Z,94.59
2022-11-26T18:36:54.015Z,94.63
2022-11-26T18:42:40.807Z,94.22
2022-11-26T18:48:07.473Z,93.99
2022-11-26T18:53:47.510Z,91.61
2022-11-26T18:59:22.916Z,91.30
2022-11-26T19:05:12.028Z,91.91
2022-11-26T19:10:51.189Z,93.26
2022-11-26T19:13:42.777Z,93.42
2022-11-26T19:19:10.768Z,93.13
2022-11-26T19:24:47.718Z,92.73
2022-11-26T19:27:38.436Z,93.32
2022-11-26T19:33:13.004Z,93.10
2022-11-26T19:38:57.988Z,93.48
2022-11-26T19:41:46.556Z,93.29
2022-11-26T19:47:24.154Z,92.34
2022-11-26T19:53:25.618Z,93.34
2022-11-26T19:59:03.121Z,93.96
2022-11-26T20:07:47.272Z,93.67
2022-11-26T20:18:51.983Z,95.31
2022-11-26T20:43:15.486Z,99.96
2022-11-26T20:53:38.831Z,100.00
2022-11-26T21:05:48.041Z,97.94
2022-11-26T21:08:40.276Z,98.33
2022-11-26T21:17:01.946Z,98.85
2022-11-26T21:22:39.812Z,97.46
2022-11-26T21:28:16.853Z,96.82
2022-11-26T21:34:00.723Z,97.06
2022-11-26T21:39:29.410Z,96.19
2022-11-26T21:42:18.172Z,95.62
2022-11-26T21:47:46.248Z,96.53
2022-11-26T21:53:25.511Z,97.56
2022-11-26T21:56:17.378Z,97.69
2022-11-26T21:59:06.396Z,98.51
2022-11-26T22:04:36.296Z,99.86
2022-11-26T22:07:29.972Z,98.02
2022-11-26T22:13:08.708Z,100.00
2022-11-26T22:18:38.391Z,100.00
2022-11-26T22:24:19.003Z,100.00
2022-11-26T22:29:55.739Z,100.00
2022-11-26T22:32:44.113Z,100.00
2022-11-26T22:38:20.108Z,99.80
2022-11-26T22:43:49.952Z,100.00
2022-11-26T22:52:13.908Z,100.00
2022-11-26T22:57:49.688Z,100.00
2022-11-26T23:03:36.571Z,100.00
2022-11-26T23:12:06.709Z,100.00
2022-11-26T23:14:59.726Z,100.00
2022-11-26T23:17:50.640Z,100.00
2022-11-26T23:23:24.026Z,100.00
2022-11-26T23:26:15.374Z,100.00
2022-11-26T23:31:48.231Z,100.00
2022-11-26T23:37:18.352Z,100.00
2022-11-26T23:45:44.478Z,100.00
2022-11-26T23:51:15.279Z,100.00
2022-11-26T23:54:09.806Z,100.00
2022-11-26T23:56:58.489Z,100.00
2022-11-26T23:59:46.481Z,100.00
